Terminal Aerodrome Forecast
Issued by NWS

Home | Current Version | Previous Version | Text Only | Print | Product List | Glossary On
Versions: 1 2 3 4 5 6 7 8 9 10 11 12 13 14
000
FTUS43 KIND 191720
TAFBMG
TAF
KBMG 191720Z 1918/2018 26004KT P6SM SCT050
     FM200100 VRB03KT P6SM FEW050 SCT200
     FM200900 VRB03KT 4SM BR FEW250
     FM201400 16004KT P6SM FEW200=

USA.gov is the U.S. government's official web portal to all federal, state and local government web resources and services.